Hector International Airport Fargo US
ICAO: KFAR
IATA: FAR
Category: Medium
Scheduled Services: Yes

Elevation: 902 ft
TransAlt. 18000 ft.

Airport Communications:
FARGO APP/DEP:120.4
ATIS:124.5
GND/CLNC DEL:121.9
GRAND FORKS RDO:122.425
FARGO TWR:133.8
UNICOM:122.95

KFAR Zoom In..

If you have problems with the map follow the link
https://www.worldairports.se/pages/airport.php?
ICAO=KFAR

Runways:

(A) RW 09 length 6302 ft width 100 ft
---- / hdg 86

(B) RW 13 length 3801 ft width 75 ft
---- / hdg 133

(C) RW 18 length 9001 ft width 150 ft
ILS 108.90 / hdg 176

(D) RW 27 length 6302 ft width 100 ft
---- / hdg 266

(E) RW 31 length 3801 ft width 75 ft
---- / hdg 313

(F) RW 36 length 9001 ft width 150 ft
ILS 110.30 / hdg 356

Location; KFAR
Day. 13 / Time. 13.21 Zulu
* Altimeter: 29.86
* Temperature: -11° c. -12.2°f.
* Wind from: 140° Speed 09 kn.
Dewpoint: -12° c.
Visibility: 2 Statute Miles.
Clouds: Overcast 3900 ft.
Conditions: Light Snow.Conditions: Mist.

KFAR 131321Z 14009KT 2SM -SN BR OVC039 M11/M12 A2986 RMK AO2 P0000 T11061122


Wind From 140°
Speed 09 kn.

 
 
jpsmedia worldairports.se 2019   terms of use